Time,TemperatureF,DewpointF,PressureIn,WindDirection,WindDirectionDegrees,WindSpeedMPH,WindSpeedGustMPH,Humidity,HourlyPrecipIn,Conditions,Clouds,dailyrainin,SoftwareType,DateUTC
2013-08-28 00:02:00,72.0,71.1,29.85,South,189,0.0,0.0,97,0.00,,,0.01,VWS V14.01,2013-08-28 04:02:00,
2013-08-28 00:17:00,72.1,71.2,29.84,South,189,0.0,0.0,97,0.00,,,0.00,VWS V14.01,2013-08-28 04:17:00,
2013-08-28 00:32:00,72.1,70.9,29.84,SW,217,0.0,0.0,96,0.00,,,0.00,VWS V14.01,2013-08-28 04:32:00,
2013-08-28 00:47:00,72.2,71.0,29.84,SW,217,0.0,0.0,96,0.00,,,0.00,VWS V14.01,2013-08-28 04:47:00,
2013-08-28 01:02:00,72.3,71.1,29.83,SSW,210,0.0,0.0,96,0.00,,,0.00,VWS V14.01,2013-08-28 05:02:00,
2013-08-28 01:17:00,72.3,71.1,29.83,SSW,210,0.0,0.0,96,0.00,,,0.00,VWS V14.01,2013-08-28 05:17:00,
2013-08-28 01:32:00,72.3,71.1,29.83,SW,225,0.0,0.0,96,0.00,,,0.00,VWS V14.01,2013-08-28 05:32:00,
2013-08-28 01:47:00,72.4,71.2,29.83,SW,225,0.0,0.0,96,0.00,,,0.00,VWS V14.01,2013-08-28 05:47:00,
2013-08-28 02:02:00,72.4,71.2,29.82,SW,225,0.0,0.0,96,0.00,,,0.00,VWS V14.01,2013-08-28 06:02:00,
2013-08-28 02:17:00,72.4,71.2,29.82,SW,233,0.0,0.0,96,0.00,,,0.00,VWS V14.01,2013-08-28 06:17:00,
2013-08-28 02:32:00,72.4,71.2,29.82,SW,222,0.0,0.0,96,0.00,,,0.00,VWS V14.01,2013-08-28 06:32:00,
2013-08-28 02:47:00,72.4,71.2,29.82,SW,214,0.0,0.0,96,0.00,,,0.00,VWS V14.01,2013-08-28 06:47:00,
2013-08-28 03:02:00,72.3,71.1,29.82,South,191,0.0,0.0,96,0.00,,,0.00,VWS V14.01,2013-08-28 07:02:00,
2013-08-28 03:17:00,72.2,71.0,29.82,South,191,0.0,0.0,96,0.01,,,0.01,VWS V14.01,2013-08-28 07:17:00,
2013-08-28 03:32:00,71.9,70.7,29.82,SSW,204,0.0,0.0,96,0.20,,,0.20,VWS V14.01,2013-08-28 07:32:00,
2013-08-28 03:47:00,71.2,70.0,29.82,South,171,0.0,0.0,96,0.55,,,0.55,VWS V14.01,2013-08-28 07:47:00,
2013-08-28 04:02:00,71.0,70.1,29.82,South,169,0.0,0.0,97,0.75,,,0.75,VWS V14.01,2013-08-28 08:02:00,
2013-08-28 04:17:00,70.8,69.9,29.82,South,169,0.0,0.0,97,1.10,,,1.10,VWS V14.01,2013-08-28 08:17:00,
2013-08-28 04:32:00,70.6,69.7,29.82,South,169,0.0,0.0,97,1.21,,,1.22,VWS V14.01,2013-08-28 08:32:00,
2013-08-28 04:47:00,70.5,69.6,29.82,South,169,0.0,0.0,97,1.06,,,1.26,VWS V14.01,2013-08-28 08:47:00,
2013-08-28 05:02:00,70.5,69.9,29.82,South,169,0.0,0.0,98,0.71,,,1.26,VWS V14.01,2013-08-28 09:02:00,
2013-08-28 05:17:00,70.2,69.3,29.81,South,169,0.0,0.0,97,0.52,,,1.27,VWS V14.01,2013-08-28 09:17:00,
2013-08-28 05:32:00,70.0,69.1,29.81,South,169,0.0,0.0,97,0.17,,,1.27,VWS V14.01,2013-08-28 09:32:00,
2013-08-28 05:47:00,69.8,69.2,29.80,SSW,204,0.0,0.0,98,0.05,,,1.27,VWS V14.01,2013-08-28 09:47:00,
2013-08-28 06:02:00,69.7,69.1,29.80,SSW,204,0.0,0.0,98,0.01,,,1.27,VWS V14.01,2013-08-28 10:02:00,
2013-08-28 06:17:00,69.4,68.8,29.81,SSW,203,0.0,0.0,98,0.01,,,1.27,VWS V14.01,2013-08-28 10:17:00,
2013-08-28 06:32:00,69.3,68.7,29.81,SSW,204,0.0,0.0,98,0.00,,,1.27,VWS V14.01,2013-08-28 10:32:00,
2013-08-28 06:47:00,69.2,68.6,29.81,SSW,204,0.0,0.0,98,0.00,,,1.27,VWS V14.01,2013-08-28 10:47:00,
2013-08-28 07:02:00,69.3,68.7,29.82,SSW,204,0.0,0.0,98,0.00,,,1.27,VWS V14.01,2013-08-28 11:02:00,
2013-08-28 07:17:00,69.5,68.9,29.82,SSW,203,0.0,0.0,98,0.00,,,1.27,VWS V14.01,2013-08-28 11:17:00,
2013-08-28 07:32:00,69.8,69.2,29.82,SSW,204,0.0,0.0,98,0.00,,,1.27,VWS V14.01,2013-08-28 11:32:00,
2013-08-28 07:47:00,70.0,69.4,29.82,SSW,203,0.0,0.0,98,0.00,,,1.27,VWS V14.01,2013-08-28 11:47:00,
2013-08-28 08:02:00,70.3,69.7,29.82,SSW,204,0.0,0.0,98,0.00,,,1.27,VWS V14.01,2013-08-28 12:02:00,
2013-08-28 08:17:00,70.5,69.9,29.83,SSW,204,0.0,0.0,98,0.00,,,1.27,VWS V14.01,2013-08-28 12:17:00,
2013-08-28 08:32:00,70.9,70.3,29.82,SSW,204,0.0,0.0,98,0.00,,,1.27,VWS V14.01,2013-08-28 12:32:00,
2013-08-28 08:47:00,71.4,71.1,29.82,SSW,204,0.0,0.0,99,0.00,,,1.27,VWS V14.01,2013-08-28 12:47:00,
2013-08-28 09:02:00,72.0,71.7,29.82,SSW,203,0.0,0.0,99,0.00,,,1.27,VWS V14.01,2013-08-28 13:02:00,
2013-08-28 09:17:00,72.2,71.6,29.82,SSW,203,0.0,0.0,98,0.00,,,1.27,VWS V14.01,2013-08-28 13:17:00,
2013-08-28 09:32:00,72.3,71.7,29.83,SSW,204,0.0,0.0,98,0.00,,,1.27,VWS V14.01,2013-08-28 13:32:00,
2013-08-28 09:47:00,72.8,72.2,29.83,SSW,204,0.0,0.0,98,0.00,,,1.27,VWS V14.01,2013-08-28 13:47:00,
2013-08-28 10:02:00,73.4,72.8,29.83,SSW,204,0.0,0.0,98,0.00,,,1.27,VWS V14.01,2013-08-28 14:02:00,
2013-08-28 10:17:00,73.6,72.7,29.83,SSW,203,0.0,0.0,97,0.00,,,1.27,VWS V14.01,2013-08-28 14:17:00,
2013-08-28 10:32:00,73.9,72.4,29.83,South,188,0.0,0.0,95,0.00,,,1.27,VWS V14.01,2013-08-28 14:32:00,
2013-08-28 10:47:00,74.9,72.7,29.83,NE,34,0.0,0.0,93,0.00,,,1.27,VWS V14.01,2013-08-28 14:47:00,
2013-08-28 11:02:00,75.0,72.2,29.83,NE,34,0.0,0.0,91,0.00,,,1.27,VWS V14.01,2013-08-28 15:02:00,
2013-08-28 11:17:00,75.2,72.4,29.83,NNE,25,0.0,0.0,91,0.00,,,1.27,VWS V14.01,2013-08-28 15:17:00,
2013-08-28 11:32:00,76.0,72.5,29.83,North,360,0.0,0.0,89,0.00,,,1.27,VWS V14.01,2013-08-28 15:32:00,
2013-08-28 11:47:00,76.6,72.4,29.83,NNE,18,0.0,0.0,87,0.00,,,1.27,VWS V14.01,2013-08-28 15:47:00,
2013-08-28 12:02:00,78.3,73.4,29.83,NNE,21,0.0,0.0,85,0.00,,,1.27,VWS V14.01,2013-08-28 16:02:00,
2013-08-28 12:17:00,79.1,73.1,29.83,South,170,0.0,0.0,82,0.00,,,1.27,VWS V14.01,2013-08-28 16:17:00,
2013-08-28 12:47:00,80.5,72.6,29.81,South,173,0.0,0.0,77,0.00,,,1.27,VWS V14.01,2013-08-28 16:47:00,
2013-08-28 13:02:00,81.1,74.3,29.82,ENE,76,0.0,0.0,80,0.00,,,1.27,VWS V14.01,2013-08-28 17:02:00,
2013-08-28 13:17:00,79.5,73.2,29.82,NNE,28,5.0,7.0,81,0.00,,,1.27,VWS V14.01,2013-08-28 17:17:00,
2013-08-28 13:32:00,79.9,73.6,29.82,NNE,12,5.0,7.0,81,0.00,,,1.27,VWS V14.01,2013-08-28 17:32:00,
2013-08-28 13:47:00,79.3,73.0,29.83,ENE,65,0.0,7.0,81,0.00,,,1.27,VWS V14.01,2013-08-28 17:47:00,
2013-08-28 14:02:00,80.3,73.9,29.83,ENE,74,3.0,6.0,81,0.00,,,1.27,VWS V14.01,2013-08-28 18:02:00,
2013-08-28 14:17:00,81.6,73.3,29.82,NNE,25,0.0,6.0,76,0.00,,,1.27,VWS V14.01,2013-08-28 18:17:00,
2013-08-28 14:32:00,81.5,73.2,29.82,NE,41,2.0,6.0,76,0.00,,,1.27,VWS V14.01,2013-08-28 18:32:00,
2013-08-28 14:47:00,81.2,73.3,29.82,NE,39,0.0,9.0,77,0.00,,,1.27,VWS V14.01,2013-08-28 18:47:00,
2013-08-28 15:02:00,81.1,73.6,29.82,North,11,2.0,5.0,78,0.00,,,1.27,VWS V14.01,2013-08-28 19:02:00,
2013-08-28 15:17:00,80.4,72.9,29.82,NNE,13,0.0,8.0,78,0.00,,,1.27,VWS V14.01,2013-08-28 19:17:00,
2013-08-28 15:32:00,80.0,72.2,29.82,North,355,3.0,7.0,77,0.00,,,1.27,VWS V14.01,2013-08-28 19:32:00,
2013-08-28 15:47:00,80.0,72.2,29.82,NNE,26,0.0,7.0,77,0.00,,,1.27,VWS V14.01,2013-08-28 19:47:00,
2013-08-28 16:02:00,80.6,71.9,29.83,NNW,342,6.0,6.0,75,0.00,,,1.27,VWS V14.01,2013-08-28 20:02:00,
2013-08-28 16:17:00,80.0,71.8,29.83,North,5,1.0,7.0,76,0.00,,,1.27,VWS V14.01,2013-08-28 20:17:00,
2013-08-28 16:32:00,80.0,71.4,29.83,NE,56,0.0,7.0,75,0.00,,,1.27,VWS V14.01,2013-08-28 20:32:00,
2013-08-28 16:47:00,79.9,71.3,29.84,NE,40,2.0,7.0,75,0.00,,,1.27,VWS V14.01,2013-08-28 20:47:00,
2013-08-28 17:02:00,80.0,71.0,29.84,NE,44,0.0,4.0,74,0.00,,,1.27,VWS V14.01,2013-08-28 21:02:00,
2013-08-28 17:17:00,80.2,71.6,29.83,NNE,33,0.0,6.0,75,0.00,,,1.27,VWS V14.01,2013-08-28 21:17:00,
2013-08-28 17:32:00,80.1,71.9,29.83,NE,42,1.0,4.0,76,0.00,,,1.27,VWS V14.01,2013-08-28 21:32:00,
2013-08-28 17:47:00,80.2,71.6,29.83,NE,44,0.0,3.0,75,0.00,,,1.27,VWS V14.01,2013-08-28 21:47:00,
2013-08-28 18:02:00,79.8,71.9,29.83,ENE,66,0.0,5.0,77,0.00,,,1.27,VWS V14.01,2013-08-28 22:02:00,
2013-08-28 18:17:00,79.6,71.8,29.83,NE,52,1.0,3.0,77,0.00,,,1.27,VWS V14.01,2013-08-28 22:17:00,
2013-08-28 18:32:00,78.9,71.1,29.83,NE,46,0.0,5.0,77,0.00,,,1.27,VWS V14.01,2013-08-28 22:32:00,
2013-08-28 18:47:00,78.5,71.1,29.84,North,360,0.0,3.0,78,0.00,,,1.27,VWS V14.01,2013-08-28 22:47:00,
2013-08-28 19:02:00,77.6,70.6,29.85,North,9,0.0,2.0,79,0.00,,,1.27,VWS V14.01,2013-08-28 23:02:00,